Time;durP1;ratioP1;P1;durP2;ratioP2;P2;SDS_P1;SDS_P2;PMS_P1;PMS_P2;Temp;Humidity;BMP_temperature;BMP_pressure;BME280_temperature;BME280_humidity;BME280_pressure;Samples;Min_cycle;Max_cycle;Signal;HPM_P1;HPM_P2
2024/02/17 05:05:47;;;;;;;0.30;0.30;;;11.10;99.90;;;;;;6016273;23;21994;-72
2024/02/17 05:08:13;;;;;;;0.30;0.30;;;11.10;99.90;;;;;;4918572;29;20446;-70
2024/02/17 05:10:39;;;;;;;0.30;0.30;;;11.10;99.90;;;;;;4918537;29;20503;-71
2024/02/17 05:13:04;;;;;;;0.37;0.37;;;11.10;99.90;;;;;;4919723;29;20494;-72
2024/02/17 05:15:30;;;;;;;0.30;0.30;;;11.00;99.90;;;;;;4919510;29;20413;-72
2024/02/17 05:17:56;;;;;;;0.30;0.30;;;11.00;99.90;;;;;;4919641;29;20201;-72
2024/02/17 05:20:21;;;;;;;0.40;0.40;;;11.00;99.90;;;;;;4918272;29;20478;-72
2024/02/17 05:22:47;;;;;;;0.30;0.30;;;11.00;99.90;;;;;;4919568;29;20674;-72
2024/02/17 05:25:13;;;;;;;0.80;0.70;;;11.00;99.90;;;;;;4919529;29;20201;-73
2024/02/17 05:27:38;;;;;;;1.07;0.73;;;11.00;99.90;;;;;;4917911;29;20196;-72
2024/02/17 05:30:04;;;;;;;0.30;0.30;;;11.00;99.90;;;;;;4918847;29;20180;-71
2024/02/17 05:32:30;;;;;;;0.37;0.37;;;11.00;99.90;;;;;;4919542;29;20180;-73
2024/02/17 05:34:56;;;;;;;0.30;0.30;;;10.90;99.90;;;;;;4918745;29;20432;-73
2024/02/17 05:37:22;;;;;;;0.33;0.33;;;10.90;99.90;;;;;;4918755;29;20203;-73
2024/02/17 05:39:47;;;;;;;0.30;0.20;;;10.90;99.90;;;;;;4919258;29;20180;-74
2024/02/17 05:42:13;;;;;;;0.30;0.30;;;10.90;99.90;;;;;;4919209;29;20472;-74
2024/02/17 05:44:39;;;;;;;0.30;0.30;;;10.90;99.90;;;;;;4919043;29;20177;-74
2024/02/17 05:47:04;;;;;;;0.63;0.63;;;10.80;99.90;;;;;;4919352;29;20201;-72
2024/02/17 05:49:31;;;;;;;0.30;0.30;;;10.80;99.90;;;;;;4919363;29;20177;-73
2024/02/17 05:51:57;;;;;;;0.40;0.40;;;10.80;99.90;;;;;;4918889;29;20180;-72
2024/02/17 05:54:22;;;;;;;0.30;0.30;;;10.80;99.90;;;;;;4919206;29;20768;-72
2024/02/17 05:56:51;;;;;;;1.17;0.77;;;10.80;99.90;;;;;;4918907;29;20196;-74
2024/02/17 05:59:17;;;;;;;0.30;0.30;;;10.70;99.90;;;;;;4918985;29;20175;-71
2024/02/17 06:01:43;;;;;;;0.30;0.30;;;10.70;99.90;;;;;;4918955;29;20393;-72
2024/02/17 06:04:08;;;;;;;0.30;0.20;;;10.70;99.90;;;;;;4919016;29;20175;-73
2024/02/17 06:06:35;;;;;;;0.30;0.30;;;10.60;99.90;;;;;;4918287;29;20428;-73
2024/02/17 06:09:01;;;;;;;0.60;0.60;;;10.50;99.90;;;;;;4919127;29;20416;-72
2024/02/17 06:11:27;;;;;;;0.30;0.30;;;10.40;99.90;;;;;;4918580;29;20408;-72
2024/02/17 06:13:52;;;;;;;0.30;0.30;;;10.40;99.90;;;;;;4918831;29;20416;-70
2024/02/17 06:16:18;;;;;;;0.30;0.30;;;10.30;99.90;;;;;;4917046;29;20832;-72
2024/02/17 06:21:31;;;;;;;0.30;0.30;;;10.20;99.90;;;;;;4918964;29;20185;-72
2024/02/17 06:23:57;;;;;;;0.30;0.30;;;10.20;99.90;;;;;;4918549;29;20187;-72
2024/02/17 06:26:30;;;;;;;0.33;0.33;;;10.20;99.90;;;;;;4918061;29;20187;-71
2024/02/17 06:29:00;;;;;;;0.40;0.40;;;10.20;99.90;;;;;;4918645;29;20408;-72
2024/02/17 06:31:26;;;;;;;0.40;0.40;;;10.20;99.90;;;;;;4918328;29;20744;-72
2024/02/17 06:33:52;;;;;;;0.30;0.20;;;10.20;99.90;;;;;;4918309;29;20427;-71
2024/02/17 06:36:19;;;;;;;0.40;0.40;;;10.20;99.90;;;;;;4918031;29;20283;-71
2024/02/17 06:38:45;;;;;;;0.50;0.50;;;10.20;99.90;;;;;;4918155;29;20255;-71
2024/02/17 06:41:11;;;;;;;0.30;0.30;;;10.20;99.90;;;;;;4918171;29;20819;-72
2024/02/17 06:43:38;;;;;;;0.30;0.30;;;10.10;99.90;;;;;;4918138;29;20515;-73
2024/02/17 06:46:07;;;;;;;0.33;0.33;;;10.00;99.90;;;;;;4917770;29;20489;-72
2024/02/17 06:48:34;;;;;;;0.30;0.30;;;10.00;99.90;;;;;;4918153;29;20413;-72
2024/02/17 06:50:59;;;;;;;0.30;0.20;;;9.90;99.90;;;;;;4918101;29;20601;-73
2024/02/17 06:53:25;;;;;;;0.30;0.30;;;9.90;99.90;;;;;;4918231;29;20180;-73
2024/02/17 06:55:50;;;;;;;0.47;0.47;;;9.90;99.90;;;;;;4916274;29;20210;-72
2024/02/17 06:58:16;;;;;;;0.40;0.40;;;9.90;99.90;;;;;;4918124;29;20232;-75
2024/02/17 07:00:42;;;;;;;0.30;0.30;;;9.80;99.90;;;;;;4918504;29;20680;-73
2024/02/17 07:03:07;;;;;;;0.30;0.30;;;9.80;99.90;;;;;;4917283;29;20246;-71
2024/02/17 07:05:34;;;;;;;0.30;0.30;;;9.70;99.90;;;;;;4917629;29;20211;-73
2024/02/17 07:08:00;;;;;;;0.32;0.32;;;9.70;99.90;;;;;;4914713;29;20201;-72
2024/02/17 07:10:25;;;;;;;0.30;0.30;;;9.70;99.90;;;;;;4914119;29;20171;-73
2024/02/17 07:12:51;;;;;;;0.77;0.60;;;9.70;99.90;;;;;;4917610;29;20964;-73
2024/02/17 07:15:17;;;;;;;0.30;0.30;;;9.70;99.90;;;;;;4905669;29;20188;-74
2024/02/17 07:17:43;;;;;;;0.30;0.20;;;9.80;99.90;;;;;;4898444;29;20679;-70
2024/02/17 07:20:09;;;;;;;0.70;0.70;;;9.80;99.90;;;;;;4898944;29;20187;-71
2024/02/17 07:22:35;;;;;;;0.30;0.30;;;9.90;99.90;;;;;;4898581;29;20197;-71
2024/02/17 07:25:01;;;;;;;0.30;0.30;;;10.00;99.90;;;;;;4898351;29;20416;-71
2024/02/17 07:27:27;;;;;;;0.40;0.40;;;10.20;99.90;;;;;;4889942;29;20523;-70
2024/02/17 07:29:53;;;;;;;1.33;1.33;;;10.30;99.90;;;;;;4917046;29;21017;-70
2024/02/17 07:32:22;;;;;;;0.30;0.30;;;10.50;99.90;;;;;;4901135;29;20437;-72
2024/02/17 07:34:51;;;;;;;1.03;1.03;;;10.70;99.90;;;;;;4897954;29;20422;-67
2024/02/17 07:37:19;;;;;;;0.30;0.20;;;10.90;99.90;;;;;;4897751;29;20446;-68
2024/02/17 07:39:45;;;;;;;0.30;0.30;;;11.20;99.90;;;;;;4901849;29;20433;-68
2024/02/17 07:42:11;;;;;;;0.40;0.40;;;11.50;99.90;;;;;;4907231;29;20461;-70
2024/02/17 07:44:36;;;;;;;0.30;0.30;;;11.70;99.90;;;;;;4916355;29;20418;-69
2024/02/17 07:47:03;;;;;;;0.33;0.33;;;12.20;99.90;;;;;;4914975;29;20707;-66
2024/02/17 07:49:29;;;;;;;0.30;0.30;;;12.50;99.90;;;;;;4916836;29;20236;-70
2024/02/17 07:51:54;;;;;;;0.30;0.30;;;12.80;99.90;;;;;;4913771;29;20426;-68
2024/02/17 07:54:20;;;;;;;0.70;0.70;;;13.20;99.90;;;;;;4896722;29;20934;-68
2024/02/17 07:56:46;;;;;;;0.60;0.60;;;13.40;99.90;;;;;;4896838;29;20237;-72
2024/02/17 07:59:12;;;;;;;0.40;0.40;;;13.60;99.90;;;;;;4905632;29;20187;-68
2024/02/17 08:01:38;;;;;;;0.60;0.50;;;13.70;99.90;;;;;;4896756;29;20421;-70
2024/02/17 08:04:03;;;;;;;0.50;0.40;;;13.80;99.90;;;;;;4879934;29;20186;-69
2024/02/17 08:06:29;;;;;;;0.30;0.30;;;14.10;99.90;;;;;;4896408;29;20359;-71
2024/02/17 08:08:55;;;;;;;0.30;0.30;;;14.40;99.90;;;;;;4897595;29;20177;-74
2024/02/17 08:11:20;;;;;;;1.23;1.00;;;14.80;99.90;;;;;;4881068;29;20182;-70
2024/02/17 08:13:46;;;;;;;0.43;0.43;;;15.40;99.90;;;;;;4899104;29;20194;-70
2024/02/17 08:16:11;;;;;;;0.30;0.20;;;16.00;99.90;;;;;;4905579;29;20202;-69
2024/02/17 08:18:41;;;;;;;0.30;0.20;;;16.70;99.90;;;;;;4917090;29;20239;-70
2024/02/17 08:21:07;;;;;;;0.30;0.30;;;17.30;99.90;;;;;;4908305;29;20183;-73
2024/02/17 08:23:33;;;;;;;0.67;0.40;;;17.80;99.90;;;;;;4914236;29;20966;-72
2024/02/17 08:26:00;;;;;;;0.40;0.40;;;17.50;99.90;;;;;;4916411;29;20587;-70
2024/02/17 08:28:26;;;;;;;0.60;0.50;;;16.90;99.90;;;;;;4908909;29;20231;-67
2024/02/17 08:30:52;;;;;;;0.30;0.30;;;16.30;99.90;;;;;;4897777;29;20427;-71
2024/02/17 08:33:17;;;;;;;0.30;0.30;;;15.80;99.90;;;;;;4881230;29;20412;-72
2024/02/17 08:35:45;;;;;;;0.50;0.50;;;15.50;99.90;;;;;;4897567;29;20187;-70
2024/02/17 08:38:11;;;;;;;0.30;0.30;;;15.00;99.90;;;;;;4898059;29;20183;-70
2024/02/17 08:40:37;;;;;;;0.40;0.40;;;14.70;99.90;;;;;;4901651;29;20449;-70
2024/02/17 08:43:04;;;;;;;0.30;0.27;;;14.30;99.90;;;;;;4916104;29;20445;-71
2024/02/17 08:45:30;;;;;;;0.43;0.43;;;14.00;99.90;;;;;;4918802;29;20624;-70
2024/02/17 08:47:56;;;;;;;0.30;0.30;;;14.10;99.90;;;;;;4917564;29;20490;-69
2024/02/17 08:50:22;;;;;;;0.30;0.30;;;14.20;99.90;;;;;;4902127;29;20401;-69
2024/02/17 08:52:47;;;;;;;0.30;0.20;;;14.30;99.90;;;;;;4898717;29;20187;-70
2024/02/17 08:55:13;;;;;;;0.40;0.40;;;14.40;99.90;;;;;;4911832;29;20193;-70
2024/02/17 08:57:39;;;;;;;0.30;0.30;;;14.40;99.90;;;;;;4917423;29;20453;-72
2024/02/17 09:00:05;;;;;;;1.13;0.70;;;14.90;99.90;;;;;;4903344;29;20185;-71
2024/02/17 09:02:31;;;;;;;0.30;0.30;;;15.90;99.90;;;;;;4905614;29;20215;-70
2024/02/17 09:04:58;;;;;;;0.53;0.53;;;16.80;99.90;;;;;;4902218;29;20393;-70
2024/02/17 09:07:24;;;;;;;0.30;0.30;;;17.80;99.90;;;;;;4902537;29;20972;-70
2024/02/17 09:09:52;;;;;;;0.93;0.60;;;18.70;99.90;;;;;;4901961;29;20509;-66
2024/02/17 09:12:19;;;;;;;0.30;0.30;;;19.60;99.90;;;;;;4902009;29;20200;-66
2024/02/17 09:14:44;;;;;;;0.30;0.30;;;20.30;99.90;;;;;;4902339;29;20433;-66
2024/02/17 09:17:10;;;;;;;0.30;0.30;;;20.40;99.90;;;;;;4916938;29;20452;-67
2024/02/17 09:19:35;;;;;;;0.30;0.30;;;20.10;99.90;;;;;;4902860;29;20176;-66
2024/02/17 09:22:01;;;;;;;0.30;0.30;;;19.60;99.90;;;;;;4919669;29;20285;-66
2024/02/17 09:24:27;;;;;;;0.30;0.30;;;18.80;99.90;;;;;;4919452;29;20285;-65
2024/02/17 09:26:55;;;;;;;0.30;0.20;;;18.20;99.90;;;;;;4919616;29;20223;-65
2024/02/17 09:29:21;;;;;;;0.53;0.53;;;17.50;99.90;;;;;;4919029;29;20412;-65
2024/02/17 09:31:47;;;;;;;0.30;0.30;;;16.70;99.90;;;;;;4918718;29;20488;-65
2024/02/17 09:34:12;;;;;;;0.60;0.60;;;16.00;99.90;;;;;;4919597;29;20513;-70
2024/02/17 09:36:38;;;;;;;0.60;0.60;;;15.60;99.90;;;;;;4919161;29;20197;-71
2024/02/17 09:39:03;;;;;;;0.30;0.30;;;15.20;99.90;;;;;;4919630;29;20179;-71
2024/02/17 09:41:30;;;;;;;0.30;0.30;;;14.90;99.90;;;;;;4919555;29;20170;-69
2024/02/17 09:43:55;;;;;;;0.30;0.30;;;14.60;99.90;;;;;;4904137;29;20206;-71
2024/02/17 09:46:26;;;;;;;0.30;0.30;;;14.50;99.90;;;;;;4909150;29;20442;-68
2024/02/17 09:48:53;;;;;;;0.30;0.30;;;14.40;99.90;;;;;;4919343;29;20302;-71
2024/02/17 09:51:20;;;;;;;0.50;0.37;;;14.10;99.90;;;;;;4919054;29;20494;-69
2024/02/17 09:53:45;;;;;;;0.30;0.30;;;13.90;99.90;;;;;;4919274;29;20450;-68
2024/02/17 09:56:11;;;;;;;0.40;0.40;;;13.70;99.90;;;;;;4901373;29;20496;-67
2024/02/17 09:58:38;;;;;;;0.30;0.30;;;13.60;99.90;;;;;;4918329;29;20182;-68
2024/02/17 10:01:03;;;;;;;0.40;0.40;;;13.40;99.90;;;;;;4912006;29;20189;-71
2024/02/17 10:03:34;;;;;;;0.30;0.30;;;13.30;99.90;;;;;;4899967;29;20974;-67
2024/02/17 10:06:13;;;;;;;0.50;0.50;;;13.20;99.90;;;;;;4899636;29;20225;-70
2024/02/17 10:08:39;;;;;;;0.30;0.30;;;13.20;99.90;;;;;;4899806;29;20420;-69
2024/02/17 10:11:10;;;;;;;0.30;0.30;;;13.30;99.90;;;;;;4899930;29;20489;-70
2024/02/17 10:13:37;;;;;;;0.60;0.60;;;13.60;99.90;;;;;;4900415;29;20813;-70
2024/02/17 10:16:15;;;;;;;0.53;0.53;;;13.90;99.90;;;;;;4906031;29;20455;-71
2024/02/17 10:18:42;;;;;;;0.30;0.30;;;13.90;99.90;;;;;;4918352;29;20431;-70
2024/02/17 10:21:09;;;;;;;0.30;0.30;;;14.00;99.90;;;;;;4918398;29;20421;-71
2024/02/17 10:23:34;;;;;;;0.40;0.40;;;14.00;99.90;;;;;;4917512;29;20765;-69
2024/02/17 10:26:01;;;;;;;0.30;0.30;;;14.00;99.90;;;;;;4917761;29;20418;-66
2024/02/17 10:28:27;;;;;;;0.30;0.30;;;14.10;99.90;;;;;;4906249;29;20263;-69
2024/02/17 10:30:55;;;;;;;0.30;0.30;;;14.10;99.90;;;;;;4905457;29;20418;-66
2024/02/17 10:33:20;;;;;;;0.30;0.20;;;14.10;99.90;;;;;;4918291;29;20424;-64
2024/02/17 10:35:47;;;;;;;0.30;0.30;;;14.20;99.90;;;;;;4918647;29;20590;-67
2024/02/17 10:38:14;;;;;;;0.30;0.30;;;14.60;99.90;;;;;;4918710;29;20174;-64
2024/02/17 10:40:40;;;;;;;0.77;0.77;;;15.40;99.90;;;;;;4901160;29;20917;-66
2024/02/17 10:43:07;;;;;;;0.30;0.20;;;16.30;99.90;;;;;;4900293;29;20484;-63
2024/02/17 10:45:33;;;;;;;0.67;0.67;;;17.30;99.90;;;;;;4899288;29;20419;-65
2024/02/17 10:48:04;;;;;;;0.53;0.53;;;18.00;99.90;;;;;;4899401;29;20465;-64
2024/02/17 10:50:32;;;;;;;0.33;0.33;;;18.10;99.90;;;;;;4882248;29;20409;-69
2024/02/17 10:53:21;;;;;;;0.30;0.20;;;17.80;99.90;;;;;;4899563;29;20505;-73
2024/02/17 10:55:55;;;;;;;0.30;0.30;;;17.20;99.90;;;;;;4891128;29;20947;-69
2024/02/17 10:58:23;;;;;;;0.30;0.30;;;16.50;99.90;;;;;;4911161;29;20477;-69
2024/02/17 11:00:50;;;;;;;0.53;0.53;;;15.80;99.90;;;;;;4915826;29;20401;-69
2024/02/17 11:03:23;;;;;;;0.30;0.30;;;15.30;99.90;;;;;;4917738;29;20468;-69
2024/02/17 11:06:08;;;;;;;0.30;0.30;;;15.00;99.90;;;;;;4917540;29;20782;-67
2024/02/17 11:08:34;;;;;;;1.00;0.77;;;14.80;99.90;;;;;;4901092;29;20417;-67
2024/02/17 11:11:30;;;;;;;0.73;0.73;;;14.60;99.90;;;;;;4912362;29;20415;-69
2024/02/17 11:13:58;;;;;;;0.30;0.30;;;14.40;99.90;;;;;;4909859;29;21010;-69
2024/02/17 11:16:25;;;;;;;0.60;0.60;;;14.20;99.90;;;;;;4907120;29;20476;-70
2024/02/17 11:18:55;;;;;;;0.30;0.30;;;14.10;99.90;;;;;;4917571;29;20410;-69
2024/02/17 11:21:38;;;;;;;0.30;0.30;;;14.10;99.90;;;;;;4917372;29;20474;-69
2024/02/17 11:24:09;;;;;;;0.30;0.30;;;14.20;99.90;;;;;;4901167;29;20551;-69
2024/02/17 11:26:35;;;;;;;0.40;0.33;;;14.30;99.90;;;;;;4916319;29;20453;-71
2024/02/17 11:29:02;;;;;;;0.30;0.30;;;14.60;99.90;;;;;;4904779;29;20414;-69
2024/02/17 11:31:29;;;;;;;0.37;0.37;;;14.90;99.90;;;;;;4900322;29;20178;-71
2024/02/17 11:34:03;;;;;;;0.30;0.30;;;15.00;99.90;;;;;;4917200;29;20385;-71
2024/02/17 11:36:33;;;;;;;0.30;0.30;;;15.00;99.90;;;;;;4916503;29;20462;-69
2024/02/17 11:38:59;;;;;;;0.70;0.63;;;15.00;99.90;;;;;;4916845;29;20435;-69
2024/02/17 11:41:27;;;;;;;0.37;0.37;;;14.90;99.90;;;;;;4917364;29;20497;-68
2024/02/17 11:43:54;;;;;;;0.40;0.40;;;14.80;99.90;;;;;;4903799;29;20793;-69
2024/02/17 11:46:19;;;;;;;0.60;0.60;;;14.70;99.90;;;;;;4898247;29;20439;-71
2024/02/17 11:48:45;;;;;;;0.30;0.30;;;14.50;99.90;;;;;;4898513;29;20422;-70
2024/02/17 11:51:19;;;;;;;0.30;0.30;;;14.40;99.90;;;;;;4898478;29;20231;-69
2024/02/17 11:53:46;;;;;;;0.33;0.33;;;14.30;99.90;;;;;;4898391;29;20410;-70
2024/02/17 11:56:13;;;;;;;1.53;1.43;;;14.30;99.90;;;;;;4897945;29;20816;-70
2024/02/17 11:58:38;;;;;;;0.30;0.30;;;14.40;99.90;;;;;;4909166;29;20188;-70
2024/02/17 12:01:04;;;;;;;1.17;1.13;;;14.40;99.90;;;;;;4919040;29;20416;-71
2024/02/17 12:03:31;;;;;;;0.30;0.30;;;14.30;99.90;;;;;;4917347;29;20218;-71
2024/02/17 12:06:02;;;;;;;0.50;0.50;;;14.30;99.90;;;;;;4917089;29;20851;-68
2024/02/17 12:08:28;;;;;;;1.83;0.67;;;14.20;99.90;;;;;;4916695;29;20421;-70
2024/02/17 12:10:55;;;;;;;0.30;0.30;;;14.20;99.90;;;;;;4884237;29;21011;-69
2024/02/17 12:13:21;;;;;;;0.30;0.30;;;14.20;99.90;;;;;;4899218;29;20428;-70
2024/02/17 12:15:46;;;;;;;0.33;0.33;;;14.30;99.90;;;;;;4897969;29;20464;-73
2024/02/17 12:18:12;;;;;;;0.30;0.30;;;14.40;99.90;;;;;;4865490;29;20827;-69
2024/02/17 12:20:38;;;;;;;0.30;0.30;;;14.50;99.90;;;;;;4898620;29;20240;-70
2024/02/17 12:23:08;;;;;;;0.30;0.30;;;14.50;99.90;;;;;;4898893;29;20201;-67
2024/02/17 12:25:35;;;;;;;0.50;0.50;;;14.70;99.90;;;;;;4915555;29;20417;-70
2024/02/17 12:28:02;;;;;;;0.30;0.30;;;14.80;99.90;;;;;;4900931;29;20444;-69
2024/02/17 12:30:28;;;;;;;0.30;0.30;;;14.80;99.90;;;;;;4898131;29;20430;-71
2024/02/17 12:33:09;;;;;;;0.30;0.30;;;14.90;99.90;;;;;;4898308;29;20446;-69
2024/02/17 12:35:42;;;;;;;0.60;0.60;;;14.90;99.90;;;;;;4897825;29;20185;-70
2024/02/17 12:38:09;;;;;;;0.30;0.30;;;14.80;99.90;;;;;;4904231;29;20488;-70
2024/02/17 12:40:35;;;;;;;0.30;0.30;;;14.80;99.90;;;;;;4920384;29;20944;-71
2024/02/17 12:43:01;;;;;;;0.40;0.40;;;14.60;99.90;;;;;;4905686;29;20562;-69
2024/02/17 12:45:32;;;;;;;0.63;0.63;;;14.50;99.90;;;;;;4901590;29;20260;-71
2024/02/17 12:48:01;;;;;;;0.40;0.30;;;14.40;99.90;;;;;;4902031;29;20433;-70
2024/02/17 12:50:28;;;;;;;0.30;0.30;;;14.30;99.90;;;;;;4885526;29;20390;-68
2024/02/17 12:53:16;;;;;;;0.30;0.30;;;14.30;99.90;;;;;;4885531;29;20429;-71
2024/02/17 12:55:42;;;;;;;0.60;0.60;;;14.20;99.90;;;;;;4901200;29;20718;-72
2024/02/17 12:58:09;;;;;;;0.30;0.30;;;14.20;99.90;;;;;;4914944;29;20427;-70
2024/02/17 13:00:35;;;;;;;0.40;0.40;;;14.20;99.90;;;;;;4921022;29;20765;-70
2024/02/17 13:03:00;;;;;;;0.37;0.37;;;14.20;99.90;;;;;;4920239;29;20548;-68
2024/02/17 13:05:26;;;;;;;0.57;0.57;;;14.30;99.90;;;;;;4919881;29;20186;-71
2024/02/17 13:07:52;;;;;;;0.30;0.30;;;14.30;99.90;;;;;;4903504;29;20220;-69
2024/02/17 13:10:18;;;;;;;0.30;0.30;;;14.30;99.90;;;;;;4920417;29;20494;-69
2024/02/17 13:12:44;;;;;;;0.40;0.40;;;14.30;99.90;;;;;;4911178;29;20463;-70
2024/02/17 13:15:12;;;;;;;0.30;0.30;;;14.20;99.90;;;;;;4910008;29;20200;-70
2024/02/17 13:17:38;;;;;;;0.30;0.30;;;14.20;99.90;;;;;;4919844;29;20470;-68
2024/02/17 13:20:04;;;;;;;0.30;0.30;;;14.20;99.90;;;;;;4919701;29;20820;-67
2024/02/17 13:22:31;;;;;;;0.30;0.30;;;14.10;99.90;;;;;;4919153;29;20214;-70
2024/02/17 13:24:56;;;;;;;0.30;0.30;;;14.00;99.90;;;;;;4919113;29;20408;-69
2024/02/17 13:27:22;;;;;;;0.40;0.40;;;14.00;99.90;;;;;;4915070;29;20752;-70
2024/02/17 13:29:47;;;;;;;0.30;0.30;;;14.00;99.90;;;;;;4913474;29;20259;-69
2024/02/17 13:32:13;;;;;;;0.30;0.30;;;14.10;99.90;;;;;;4919454;29;20187;-69
2024/02/17 13:34:39;;;;;;;0.73;0.73;;;14.10;99.90;;;;;;4919208;29;20179;-69
2024/02/17 13:37:04;;;;;;;0.40;0.40;;;14.00;99.90;;;;;;4918780;29;20270;-69
2024/02/17 13:39:31;;;;;;;0.90;0.90;;;14.00;99.90;;;;;;4918744;29;20191;-69
2024/02/17 13:41:57;;;;;;;0.30;0.30;;;14.00;99.90;;;;;;4919270;29;20712;-68
2024/02/17 13:44:23;;;;;;;0.30;0.20;;;14.10;99.90;;;;;;4901323;29;20457;-68
2024/02/17 13:46:49;;;;;;;0.30;0.30;;;14.20;99.90;;;;;;4899076;29;20275;-71
2024/02/17 13:49:14;;;;;;;0.30;0.30;;;14.30;99.90;;;;;;4916326;29;20184;-71
2024/02/17 13:51:40;;;;;;;0.30;0.30;;;14.40;99.90;;;;;;4919349;29;20827;-70
2024/02/17 13:54:08;;;;;;;0.30;0.30;;;14.50;99.90;;;;;;4910908;29;20187;-65
2024/02/17 13:56:35;;;;;;;0.30;0.30;;;14.60;99.90;;;;;;4899838;29;20193;-69
2024/02/17 13:59:01;;;;;;;0.30;0.20;;;14.70;99.90;;;;;;4912117;29;20428;-68
2024/02/17 14:01:27;;;;;;;0.30;0.30;;;14.70;99.90;;;;;;4918560;29;20408;-70
2024/02/17 14:03:53;;;;;;;0.30;0.30;;;14.70;99.90;;;;;;4918839;29;20954;-68
2024/02/17 14:06:19;;;;;;;0.70;0.70;;;14.70;99.90;;;;;;4918236;29;20217;-68
2024/02/17 14:08:45;;;;;;;0.30;0.30;;;14.70;99.90;;;;;;4901154;29;20500;-67
2024/02/17 14:11:11;;;;;;;6.43;1.03;;;14.60;99.90;;;;;;4918730;29;20391;-67
2024/02/17 14:13:37;;;;;;;0.50;0.50;;;14.60;99.90;;;;;;4911177;29;20757;-67
2024/02/17 14:16:03;;;;;;;0.30;0.27;;;14.70;99.90;;;;;;4899290;29;20448;-68
2024/02/17 14:18:29;;;;;;;0.30;0.30;;;14.60;99.90;;;;;;4899932;29;20203;-67
2024/02/17 14:20:59;;;;;;;0.63;0.63;;;14.60;99.90;;;;;;4899690;29;20780;-68
2024/02/17 14:23:25;;;;;;;0.30;0.20;;;14.60;99.90;;;;;;4907206;29;20299;-67
2024/02/17 14:25:52;;;;;;;0.30;0.30;;;14.60;99.90;;;;;;4918143;29;20507;-67
2024/02/17 14:28:18;;;;;;;0.30;0.30;;;14.60;99.90;;;;;;4918029;29;20417;-68
2024/02/17 14:30:45;;;;;;;0.47;0.47;;;14.50;99.90;;;;;;4917452;29;20497;-67
2024/02/17 14:33:11;;;;;;;0.33;0.33;;;14.40;99.90;;;;;;4918215;29;20183;-66
2024/02/17 14:35:37;;;;;;;0.30;0.30;;;14.30;99.90;;;;;;4918058;29;20419;-68
2024/02/17 14:38:03;;;;;;;0.40;0.40;;;14.20;99.90;;;;;;4917080;29;20251;-67
2024/02/17 14:40:28;;;;;;;0.30;0.30;;;14.10;99.90;;;;;;4899289;29;20179;-67
2024/02/17 14:42:54;;;;;;;0.30;0.30;;;14.00;99.90;;;;;;4898913;29;20458;-68
2024/02/17 14:45:23;;;;;;;0.50;0.50;;;13.90;99.90;;;;;;4914828;29;20186;-66
2024/02/17 14:47:49;;;;;;;0.30;0.30;;;13.80;99.90;;;;;;4917853;29;20267;-67
2024/02/17 14:50:15;;;;;;;0.90;0.57;;;13.70;99.90;;;;;;4917955;29;20458;-68
2024/02/17 14:52:41;;;;;;;0.30;0.30;;;13.60;99.90;;;;;;4917569;29;20427;-67
2024/02/17 14:55:07;;;;;;;0.50;0.50;;;13.60;99.90;;;;;;4917165;29;20817;-68
2024/02/17 14:57:33;;;;;;;0.30;0.30;;;13.60;99.90;;;;;;4917523;29;20273;-68
2024/02/17 14:59:58;;;;;;;0.30;0.30;;;13.50;99.90;;;;;;4905523;29;20490;-67
2024/02/17 15:02:25;;;;;;;0.30;0.30;;;13.50;99.90;;;;;;4899029;29;20334;-67
2024/02/17 15:04:51;;;;;;;0.40;0.40;;;13.40;99.90;;;;;;4898575;29;20681;-68
2024/02/17 15:07:18;;;;;;;0.37;0.37;;;13.40;99.90;;;;;;4899144;29;20594;-67
2024/02/17 15:09:44;;;;;;;0.30;0.30;;;13.50;99.90;;;;;;4882011;29;20174;-67
2024/02/17 15:12:09;;;;;;;0.30;0.20;;;13.40;99.90;;;;;;4898723;29;20423;-66
2024/02/17 15:14:35;;;;;;;0.30;0.30;;;13.40;99.90;;;;;;4900671;29;20491;-68
2024/02/17 15:17:00;;;;;;;0.40;0.40;;;13.50;99.90;;;;;;4898571;29;20295;-67
2024/02/17 15:19:26;;;;;;;0.40;0.40;;;13.40;99.90;;;;;;4898663;29;20634;-68
2024/02/17 15:21:52;;;;;;;0.30;0.30;;;13.40;99.90;;;;;;4898699;29;20264;-69
2024/02/17 15:24:17;;;;;;;0.30;0.20;;;13.40;99.90;;;;;;4898014;29;20172;-69
2024/02/17 15:26:43;;;;;;;0.30;0.30;;;13.40;99.90;;;;;;4897877;29;20269;-69
2024/02/17 15:29:08;;;;;;;0.30;0.30;;;13.40;99.90;;;;;;4899989;29;20596;-68
2024/02/17 15:31:34;;;;;;;0.40;0.40;;;13.40;99.90;;;;;;4916916;29;20513;-68
2024/02/17 15:34:00;;;;;;;0.30;0.30;;;13.40;99.90;;;;;;4916776;29;20190;-67
2024/02/17 15:36:25;;;;;;;0.30;0.30;;;13.40;99.90;;;;;;4916231;29;20202;-67
2024/02/17 15:38:51;;;;;;;0.30;0.20;;;13.40;99.90;;;;;;4917070;29;20174;-67
2024/02/17 15:41:17;;;;;;;0.30;0.30;;;13.50;99.90;;;;;;4916793;29;20257;-68
2024/02/17 15:43:42;;;;;;;0.30;0.30;;;13.40;99.90;;;;;;4916735;29;20198;-69
2024/02/17 15:46:12;;;;;;;0.50;0.50;;;13.40;99.90;;;;;;4900986;29;20421;-66
2024/02/17 15:48:38;;;;;;;0.30;0.30;;;13.40;99.90;;;;;;4898097;29;20167;-67
2024/02/17 15:51:06;;;;;;;0.30;0.30;;;13.30;99.90;;;;;;4915409;29;20422;-66
2024/02/17 15:53:31;;;;;;;0.30;0.30;;;13.30;99.90;;;;;;4916734;29;20925;-66
2024/02/17 15:56:00;;;;;;;0.47;0.47;;;13.30;99.90;;;;;;4916178;29;20578;-66
2024/02/17 15:58:27;;;;;;;0.30;0.30;;;13.30;99.90;;;;;;4899768;29;20658;-66
2024/02/17 16:00:54;;;;;;;0.30;0.30;;;13.40;99.90;;;;;;4905349;29;20415;-65
2024/02/17 16:03:23;;;;;;;0.30;0.30;;;13.30;99.90;;;;;;4897955;29;20826;-65
2024/02/17 16:05:49;;;;;;;0.30;0.30;;;13.30;99.90;;;;;;4907564;29;20509;-67
2024/02/17 16:08:14;;;;;;;0.30;0.30;;;13.30;99.90;;;;;;4916738;29;20457;-68
2024/02/17 16:10:41;;;;;;;0.30;0.30;;;13.30;99.90;;;;;;4916327;29;20732;-66
2024/02/17 16:13:07;;;;;;;0.30;0.30;;;13.30;99.90;;;;;;4917483;29;20182;-66
2024/02/17 16:15:34;;;;;;;0.40;0.40;;;13.20;99.90;;;;;;4907149;29;20419;-66
2024/02/17 16:17:59;;;;;;;0.30;0.30;;;13.30;99.90;;;;;;4901616;29;20202;-66
2024/02/17 16:20:25;;;;;;;0.30;0.20;;;13.20;99.90;;;;;;4911841;29;20444;-68
2024/02/17 16:22:51;;;;;;;0.30;0.30;;;13.20;99.90;;;;;;4920506;29;20204;-67
2024/02/17 16:25:17;;;;;;;0.50;0.50;;;13.20;99.90;;;;;;4905828;29;20214;-67
2024/02/17 16:27:43;;;;;;;0.30;0.30;;;13.20;99.90;;;;;;4901145;29;20199;-65
2024/02/17 16:30:09;;;;;;;0.30;0.30;;;13.20;99.90;;;;;;4909144;29;20912;-66
2024/02/17 16:32:34;;;;;;;1.13;0.50;;;13.10;99.90;;;;;;4919941;29;20186;-66
2024/02/17 16:35:01;;;;;;;0.57;0.57;;;13.10;99.90;;;;;;4920300;29;20436;-66
2024/02/17 16:37:27;;;;;;;0.30;0.20;;;13.10;99.90;;;;;;4919778;29;20222;-67
2024/02/17 16:39:54;;;;;;;0.30;0.30;;;13.00;99.90;;;;;;4920803;29;20843;-67
2024/02/17 16:42:24;;;;;;;0.30;0.30;;;13.00;99.90;;;;;;4921036;29;20456;-66
2024/02/17 16:44:49;;;;;;;0.30;0.20;;;12.90;99.90;;;;;;4924043;29;20421;-65
2024/02/17 16:47:16;;;;;;;0.30;0.30;;;12.80;99.90;;;;;;4920330;29;20456;-66
2024/02/17 16:49:42;;;;;;;0.30;0.30;;;12.70;99.90;;;;;;4919829;29;20178;-67
2024/02/17 16:52:07;;;;;;;0.57;0.57;;;12.60;99.90;;;;;;4917103;29;21006;-66
2024/02/17 16:54:33;;;;;;;0.30;0.30;;;12.50;99.90;;;;;;4902592;29;20166;-67
2024/02/17 16:57:00;;;;;;;0.40;0.40;;;12.40;99.90;;;;;;4920102;29;20215;-65
2024/02/17 16:59:25;;;;;;;0.30;0.30;;;12.30;99.90;;;;;;4914365;29;20478;-67
2024/02/17 17:01:51;;;;;;;0.50;0.50;;;12.20;99.90;;;;;;4901164;29;20538;-67
2024/02/17 17:04:17;;;;;;;0.83;0.83;;;12.00;99.90;;;;;;4900689;29;20209;-69
2024/02/17 17:06:42;;;;;;;0.43;0.43;;;11.90;99.90;;;;;;4899668;29;20208;-68
2024/02/17 17:09:08;;;;;;;1.17;1.17;;;11.80;99.90;;;;;;4918605;29;20254;-65
2024/02/17 17:11:34;;;;;;;0.40;0.40;;;11.70;99.90;;;;;;4919823;29;20184;-65
2024/02/17 17:13:59;;;;;;;0.30;0.30;;;11.60;99.90;;;;;;4917013;29;20421;-67
2024/02/17 17:16:26;;;;;;;0.30;0.30;;;11.50;99.90;;;;;;4899556;29;20229;-66
2024/02/17 17:18:51;;;;;;;0.87;0.87;;;11.40;99.90;;;;;;4901332;29;20174;-67
2024/02/17 17:21:17;;;;;;;0.30;0.30;;;11.30;99.90;;;;;;4901274;29;20828;-67
2024/02/17 17:23:43;;;;;;;0.40;0.40;;;11.20;99.90;;;;;;4901641;29;20209;-67
2024/02/17 17:26:08;;;;;;;0.33;0.33;;;11.10;99.90;;;;;;4900586;29;20525;-67
2024/02/17 17:28:34;;;;;;;0.30;0.30;;;11.00;99.90;;;;;;4900859;29;20203;-67
2024/02/17 17:31:00;;;;;;;0.37;0.37;;;10.90;99.90;;;;;;4905047;29;20197;-67
2024/02/17 17:33:25;;;;;;;0.30;0.30;;;10.90;99.90;;;;;;4900206;29;20180;-68
2024/02/17 17:35:51;;;;;;;0.40;0.40;;;10.80;99.90;;;;;;4900049;29;20204;-66
2024/02/17 17:38:16;;;;;;;0.30;0.30;;;10.70;99.90;;;;;;4901029;29;20568;-66
2024/02/17 17:40:42;;;;;;;0.30;0.30;;;10.70;99.90;;;;;;4901041;29;20178;-68
2024/02/17 17:43:08;;;;;;;0.50;0.50;;;10.50;99.90;;;;;;4900363;29;20620;-66
2024/02/17 17:45:33;;;;;;;0.30;0.30;;;10.60;99.90;;;;;;4911190;29;20184;-66
2024/02/17 17:47:59;;;;;;;0.30;0.30;;;10.50;99.90;;;;;;4889928;29;20208;-67
2024/02/17 17:50:26;;;;;;;0.30;0.30;;;10.40;99.90;;;;;;4900367;29;20236;-66
2024/02/17 17:52:53;;;;;;;0.30;0.30;;;10.30;99.90;;;;;;4867531;29;20208;-66